Time;durP1;ratioP1;P1;durP2;ratioP2;P2;SDS_P1;SDS_P2;PMS_P1;PMS_P2;Temp;Humidity;BMP_temperature;BMP_pressure;BME280_temperature;BME280_humidity;BME280_pressure;Samples;Min_cycle;Max_cycle;Signal;HPM_P1;HPM_P2
2023/02/01 00:01:29;;;;;;;;;;;;;;;-0.16;83.84;98468.03;4967620;28;19965;-64
2023/02/01 00:03:54;;;;;;;;;;;;;;;-0.18;83.74;98470.13;4966981;28;20377;-65
2023/02/01 00:06:20;;;;;;;;;;;;;;;-0.16;83.87;98459.16;4983929;28;19929;-67
2023/02/01 00:08:46;;;;;;;;;;;;;;;-0.14;83.92;98462.41;4967112;28;19936;-66
2023/02/01 00:11:12;;;;;;;;;;;;;;;-0.11;83.64;98464.63;5000387;28;19961;-66
2023/02/01 00:13:39;;;;;;;;;;;;;;;-0.09;83.48;98459.03;5008098;28;19929;-64
2023/02/01 00:16:07;;;;;;;;;;;;;;;-0.08;83.42;98464.19;5007861;28;19933;-65
2023/02/01 00:18:33;;;;;;;;;;;;;;;-0.06;83.34;98464.75;4989872;28;19930;-65
2023/02/01 00:20:58;;;;;;;;;;;;;;;-0.10;82.94;98473.53;5002068;28;19952;-64
2023/02/01 00:23:24;;;;;;;;;;;;;;;-0.10;83.14;98462.78;5009783;28;19984;-66
2023/02/01 00:25:50;;;;;;;;;;;;;;;-0.11;83.23;98479.94;4989984;28;19985;-66
2023/02/01 00:28:16;;;;;;;;;;;;;;;-0.09;83.07;98472.47;4989873;28;19929;-66
2023/02/01 00:30:42;;;;;;;;;;;;;;;-0.06;82.95;98469.28;4987583;28;19929;-65
2023/02/01 00:33:09;;;;;;;;;;;;;;;-0.07;82.87;98467.66;4992198;28;19936;-66
2023/02/01 00:35:35;;;;;;;;;;;;;;;-0.05;82.86;98463.69;4988432;28;19929;-64
2023/02/01 00:38:01;;;;;;;;;;;;;;;-0.03;82.64;98452.69;5008226;28;19940;-65
2023/02/01 00:40:27;;;;;;;;;;;;;;;-0.05;82.50;98461.00;4990830;28;20403;-65
2023/02/01 00:42:53;;;;;;;;;;;;;;;-0.07;82.38;98462.28;4972354;28;20413;-66
2023/02/01 00:45:19;;;;;;;;;;;;;;;-0.10;82.46;98466.25;4995300;28;20398;-65
2023/02/01 00:47:45;;;;;;;;;;;;;;;-0.13;82.71;98456.00;5009844;28;20036;-65
2023/02/01 00:50:12;;;;;;;;;;;;;;;-0.12;82.42;98462.19;5006972;28;20024;-65
2023/02/01 00:52:38;;;;;;;;;;;;;;;-0.07;82.55;98459.59;4988332;28;20375;-65
2023/02/01 00:55:04;;;;;;;;;;;;;;;-0.11;82.29;98464.63;4988230;28;19933;-66
2023/02/01 00:57:30;;;;;;;;;;;;;;;-0.12;82.53;98452.25;5006387;28;20121;-65
2023/02/01 00:59:56;;;;;;;;;;;;;;;-0.14;82.46;98459.72;4972379;28;20016;-65
2023/02/01 01:02:21;;;;;;;;;;;;;;;-0.20;82.52;98458.81;5006663;28;20359;-65
2023/02/01 01:04:47;;;;;;;;;;;;;;;-0.21;82.60;98461.75;4970863;28;19941;-65
2023/02/01 01:07:15;;;;;;;;;;;;;;;-0.20;82.58;98466.06;4987943;28;19930;-65
2023/02/01 01:09:41;;;;;;;;;;;;;;;-0.22;82.62;98452.84;4985304;28;20366;-65
2023/02/01 01:12:06;;;;;;;;;;;;;;;-0.23;82.74;98453.13;5004199;28;19930;-65
2023/02/01 01:14:32;;;;;;;;;;;;;;;-0.24;82.75;98467.56;4990725;28;20379;-65
2023/02/01 01:16:58;;;;;;;;;;;;;;;-0.24;82.55;98471.09;4989904;28;19933;-65
2023/02/01 01:19:24;;;;;;;;;;;;;;;-0.23;82.34;98461.19;4988913;28;19929;-65
2023/02/01 01:21:49;;;;;;;;;;;;;;;-0.36;82.87;98443.41;4989226;28;19929;-64
2023/02/01 01:24:17;;;;;;;;;;;;;;;-0.23;82.53;98467.34;4989929;28;19929;-69
2023/02/01 01:26:42;;;;;;;;;;;;;;;-0.21;82.40;98467.91;4987792;28;19929;-66
2023/02/01 01:29:09;;;;;;;;;;;;;;;-0.22;82.04;98462.81;4992308;28;19937;-65
2023/02/01 01:31:34;;;;;;;;;;;;;;;-0.29;82.29;98484.41;4990264;28;19929;-64
2023/02/01 01:34:00;;;;;;;;;;;;;;;-0.32;82.36;98474.94;4987404;28;19952;-64
2023/02/01 01:36:27;;;;;;;;;;;;;;;-0.31;82.59;98465.03;4971714;28;19964;-65
2023/02/01 01:38:53;;;;;;;;;;;;;;;-0.28;82.71;98469.94;4973025;28;20516;-65
2023/02/01 01:41:21;;;;;;;;;;;;;;;-0.24;82.67;98471.09;4987154;28;20367;-65
2023/02/01 01:43:49;;;;;;;;;;;;;;;-0.22;82.60;98489.66;4986694;28;19937;-65
2023/02/01 01:46:17;;;;;;;;;;;;;;;-0.20;82.47;98477.63;4974021;28;19929;-65
2023/02/01 01:48:43;;;;;;;;;;;;;;;-0.18;82.38;98488.94;4994295;28;19929;-64
2023/02/01 01:51:12;;;;;;;;;;;;;;;-0.12;82.28;98489.06;4988937;28;19929;-64
2023/02/01 01:53:40;;;;;;;;;;;;;;;-0.17;82.17;98479.81;5003386;28;19929;-64
2023/02/01 01:56:06;;;;;;;;;;;;;;;-0.19;82.21;98490.00;4985719;28;19933;-64
2023/02/01 01:58:34;;;;;;;;;;;;;;;-0.20;82.23;98485.69;4989221;28;19936;-64
2023/02/01 02:01:00;;;;;;;;;;;;;;;-0.20;82.17;98474.94;4987381;28;19965;-64
2023/02/01 02:03:30;;;;;;;;;;;;;;;-0.19;82.29;98473.06;4989273;28;19989;-64
2023/02/01 02:05:58;;;;;;;;;;;;;;;-0.15;82.30;98479.59;4989854;28;19930;-65
2023/02/01 02:08:24;;;;;;;;;;;;;;;-0.14;81.90;98489.28;4989792;28;20313;-64
2023/02/01 02:10:59;;;;;;;;;;;;;;;-0.16;82.13;98476.13;5007140;28;19940;-64
2023/02/01 02:13:26;;;;;;;;;;;;;;;-0.13;82.11;98474.00;4989859;28;19929;-65
2023/02/01 02:15:58;;;;;;;;;;;;;;;-0.19;81.77;98468.50;4987492;28;19936;-65
2023/02/01 02:18:28;;;;;;;;;;;;;;;-0.16;82.04;98476.13;4976698;28;19930;-65
2023/02/01 02:21:21;;;;;;;;;;;;;;;-0.20;82.10;98474.94;4986657;28;19930;-65
2023/02/01 02:24:13;;;;;;;;;;;;;;;-0.20;82.11;98477.63;4961340;28;20425;-65
2023/02/01 02:27:22;;;;;;;;;;;;;;;-0.30;82.23;98485.47;4985780;28;19929;-66
2023/02/01 02:30:01;;;;;;;;;;;;;;;-0.40;82.60;98501.38;4967459;28;20432;-66
2023/02/01 02:32:47;;;;;;;;;;;;;;;-0.49;83.00;98485.59;4968085;28;19984;-66
2023/02/01 02:35:17;;;;;;;;;;;;;;;-0.52;83.10;98496.00;4968237;28;20166;-64
2023/02/01 02:37:46;;;;;;;;;;;;;;;-0.54;83.27;98485.47;4985454;28;19929;-64
2023/02/01 02:40:14;;;;;;;;;;;;;;;-0.55;83.42;98499.97;4979496;28;19934;-64
2023/02/01 02:48:17;;;;;;;;;;;;;;;-0.59;83.82;98498.81;4969190;28;20023;-65
2023/02/01 03:04:37;;;;;;;;;;;;;;;-0.27;82.72;98492.22;4968584;28;20036;-65
2023/02/01 03:07:14;;;;;;;;;;;;;;;-0.32;82.95;98495.63;4986647;28;19933;-64
2023/02/01 03:09:41;;;;;;;;;;;;;;;-0.33;83.21;98502.88;4986486;28;19929;-65
2023/02/01 03:15:02;;;;;;;;;;;;;;;-0.34;83.61;98503.09;4968302;28;20340;-64
2023/02/01 03:17:31;;;;;;;;;;;;;;;-0.29;83.30;98497.84;4986246;28;20307;-65
2023/02/01 03:19:59;;;;;;;;;;;;;;;-0.27;83.50;98500.28;4965342;28;19940;-64
2023/02/01 03:22:31;;;;;;;;;;;;;;;-0.27;83.19;98485.00;4977829;28;20032;-65
2023/02/01 03:25:01;;;;;;;;;;;;;;;-0.23;83.11;98501.47;4989271;28;20040;-64
2023/02/01 03:27:30;;;;;;;;;;;;;;;-0.27;83.18;98490.38;5003093;28;19936;-65
2023/02/01 03:29:59;;;;;;;;;;;;;;;-0.29;83.27;98501.34;4986590;28;20405;-66
2023/02/01 03:32:25;;;;;;;;;;;;;;;-0.27;83.11;98503.81;4986517;28;19937;-65
2023/02/01 03:34:53;;;;;;;;;;;;;;;-0.24;83.06;98499.81;4986078;28;19929;-65
2023/02/01 03:37:22;;;;;;;;;;;;;;;-0.22;82.88;98508.47;5001035;28;20230;-66
2023/02/01 03:39:53;;;;;;;;;;;;;;;-0.20;82.62;98503.69;4979841;28;20408;-66
2023/02/01 03:42:22;;;;;;;;;;;;;;;-0.20;82.71;98512.53;4969378;28;20016;-66
2023/02/01 03:44:51;;;;;;;;;;;;;;;-0.18;82.96;98506.94;4987068;28;19937;-65
2023/02/01 03:47:20;;;;;;;;;;;;;;;-0.17;82.59;98508.56;4972388;28;19980;-66
2023/02/01 03:49:49;;;;;;;;;;;;;;;-0.18;82.78;98518.50;4971090;28;20316;-65
2023/02/01 03:52:17;;;;;;;;;;;;;;;-0.16;82.71;98523.66;5005104;28;19933;-64
2023/02/01 03:54:43;;;;;;;;;;;;;;;-0.15;82.61;98514.53;4973203;28;19965;-65
2023/02/01 03:57:12;;;;;;;;;;;;;;;-0.10;82.49;98522.69;4988612;28;19936;-64
2023/02/01 03:59:38;;;;;;;;;;;;;;;-0.09;82.42;98518.16;5001980;28;20331;-64
2023/02/01 04:02:04;;;;;;;;;;;;;;;-0.12;82.39;98519.44;5002749;28;19984;-65
2023/02/01 04:04:30;;;;;;;;;;;;;;;-0.06;82.41;98515.81;4985289;28;20313;-64
2023/02/01 04:06:56;;;;;;;;;;;;;;;0.04;82.45;98522.44;4985127;28;20459;-65
2023/02/01 04:09:22;;;;;;;;;;;;;;;0.05;82.26;98530.28;4972387;28;19929;-64
2023/02/01 04:11:47;;;;;;;;;;;;;;;0.02;82.15;98538.00;5005519;28;19933;-66
2023/02/01 04:14:14;;;;;;;;;;;;;;;0.02;82.37;98540.69;5005016;28;20423;-65
2023/02/01 04:16:40;;;;;;;;;;;;;;;0.06;82.10;98541.84;4987148;28;19956;-64
2023/02/01 04:19:06;;;;;;;;;;;;;;;0.02;82.02;98543.38;4982741;28;20277;-64
2023/02/01 04:21:32;;;;;;;;;;;;;;;0.02;82.03;98546.06;4986149;28;19944;-64
2023/02/01 04:23:58;;;;;;;;;;;;;;;0.07;81.92;98549.66;4985298;28;19937;-66
2023/02/01 04:26:24;;;;;;;;;;;;;;;0.07;81.86;98560.41;4998247;28;19929;-65
2023/02/01 04:28:50;;;;;;;;;;;;;;;0.09;81.92;98554.81;4997633;28;19929;-64
2023/02/01 04:31:25;;;;;;;;;;;;;;;0.10;81.73;98553.75;4993138;28;19929;-64
2023/02/01 04:33:51;;;;;;;;;;;;;;;0.10;81.85;98548.38;4978447;28;19936;-64
2023/02/01 04:36:19;;;;;;;;;;;;;;;0.12;81.65;98552.44;4970004;28;19936;-65
2023/02/01 04:38:45;;;;;;;;;;;;;;;0.12;81.71;98562.41;5002916;28;20389;-65
2023/02/01 04:41:10;;;;;;;;;;;;;;;0.08;81.40;98555.84;4994838;28;19960;-64
2023/02/01 04:43:36;;;;;;;;;;;;;;;0.07;81.49;98555.03;5001231;28;19987;-64
2023/02/01 04:46:02;;;;;;;;;;;;;;;0.04;81.67;98560.91;4993363;28;20228;-64
2023/02/01 04:48:29;;;;;;;;;;;;;;;0.05;81.93;98565.22;5003978;28;19940;-64
2023/02/01 04:50:55;;;;;;;;;;;;;;;0.07;81.70;98576.56;4996736;28;19930;-64
2023/02/01 04:53:21;;;;;;;;;;;;;;;0.07;81.52;98573.03;4648813;28;9999933;-66
2023/02/01 04:55:48;;;;;;;;;;;;;;;0.07;81.63;98573.03;4987798;28;20008;-65
2023/02/01 04:58:13;;;;;;;;;;;;;;;0.05;81.34;98580.50;4970634;28;19935;-65
2023/02/01 05:00:39;;;;;;;;;;;;;;;0.03;81.63;98588.84;5000997;28;20291;-65
2023/02/01 05:03:05;;;;;;;;;;;;;;;-0.03;81.72;98579.84;5006187;28;19930;-65
2023/02/01 05:05:32;;;;;;;;;;;;;;;-0.08;82.02;98582.41;5007947;28;19933;-65
2023/02/01 05:07:58;;;;;;;;;;;;;;;-0.07;82.25;98583.22;5006807;28;19933;-65
2023/02/01 05:10:23;;;;;;;;;;;;;;;-0.06;82.11;98585.69;5008727;28;19944;-64
2023/02/01 05:15:33;;;;;;;;;;;;;;;-0.08;82.07;98587.78;4985498;28;19937;-64
2023/02/01 05:17:59;;;;;;;;;;;;;;;-0.06;82.22;98598.28;4987591;28;20337;-65
2023/02/01 05:20:25;;;;;;;;;;;;;;;-0.09;82.33;98594.19;4968208;28;20032;-64
2023/02/01 05:22:52;;;;;;;;;;;;;;;-0.07;82.39;98596.66;4987280;28;20036;-64
2023/02/01 05:25:18;;;;;;;;;;;;;;;-0.06;82.46;98599.13;4958464;28;19929;-64
2023/02/01 05:27:44;;;;;;;;;;;;;;;-0.07;82.48;98592.13;4987239;28;19930;-65
2023/02/01 05:30:11;;;;;;;;;;;;;;;-0.07;82.30;98597.50;4979736;28;19983;-65
2023/02/01 05:32:37;;;;;;;;;;;;;;;-0.04;82.37;98586.25;5003521;28;19962;-66
2023/02/01 05:35:02;;;;;;;;;;;;;;;-0.02;82.60;98591.38;4992249;28;19929;-64
2023/02/01 05:37:29;;;;;;;;;;;;;;;-0.02;82.47;98586.84;4991940;28;19929;-65
2023/02/01 05:39:56;;;;;;;;;;;;;;;-0.06;82.43;98592.91;5006216;28;19929;-65
2023/02/01 05:42:22;;;;;;;;;;;;;;;-0.09;82.58;98596.88;4984867;28;19929;-65
2023/02/01 05:44:48;;;;;;;;;;;;;;;-0.04;82.53;98598.88;4994775;28;20382;-65
2023/02/01 05:47:13;;;;;;;;;;;;;;;-0.03;82.47;98601.34;4967977;28;19937;-65
2023/02/01 05:49:39;;;;;;;;;;;;;;;-0.01;82.49;98611.84;4965289;28;19979;-65
2023/02/01 05:52:07;;;;;;;;;;;;;;;-0.02;82.46;98602.97;4981310;28;20213;-64
2023/02/01 05:54:33;;;;;;;;;;;;;;;-0.07;82.40;98605.56;4967231;28;19929;-65
2023/02/01 05:57:00;;;;;;;;;;;;;;;-0.07;82.70;98600.19;4983971;28;19940;-65
2023/02/01 05:59:26;;;;;;;;;;;;;;;-0.03;82.55;98600.50;5002514;28;19929;-65
2023/02/01 06:01:52;;;;;;;;;;;;;;;-0.02;82.63;98605.66;5005192;28;19937;-65
2023/02/01 06:04:17;;;;;;;;;;;;;;;0.06;82.73;98611.72;4996997;28;19934;-65
2023/02/01 06:06:44;;;;;;;;;;;;;;;0.04;82.44;98614.66;4991787;28;20425;-64
2023/02/01 06:09:09;;;;;;;;;;;;;;;-0.08;82.48;98621.91;4992115;28;19930;-64
2023/02/01 06:11:35;;;;;;;;;;;;;;;-0.08;82.93;98628.09;5000854;28;19983;-65
2023/02/01 06:14:02;;;;;;;;;;;;;;;-0.12;82.93;98616.16;5004054;28;19930;-66
2023/02/01 06:16:29;;;;;;;;;;;;;;;-0.11;83.00;98627.75;4993234;28;19929;-65
2023/02/01 06:18:55;;;;;;;;;;;;;;;-0.17;83.05;98626.81;5001561;28;19929;-65
2023/02/01 06:21:23;;;;;;;;;;;;;;;-0.19;83.04;98628.91;4978379;28;19984;-65
2023/02/01 06:23:50;;;;;;;;;;;;;;;-0.31;83.08;98607.41;4981244;28;19935;-64
2023/02/01 06:26:17;;;;;;;;;;;;;;;-0.15;83.03;98630.91;4963469;28;19987;-64
2023/02/01 06:28:43;;;;;;;;;;;;;;;-0.12;82.73;98642.25;4988658;28;19930;-64
2023/02/01 06:31:11;;;;;;;;;;;;;;;-0.13;82.96;98635.22;5000834;28;20658;-65
2023/02/01 06:33:38;;;;;;;;;;;;;;;-0.11;82.79;98639.28;4987884;28;20028;-64
2023/02/01 06:36:06;;;;;;;;;;;;;;;-0.10;82.59;98632.06;5002020;28;19929;-64
2023/02/01 06:38:34;;;;;;;;;;;;;;;-0.07;82.53;98636.97;4988891;28;19989;-64
2023/02/01 06:41:00;;;;;;;;;;;;;;;-0.02;82.41;98642.47;5003195;28;19933;-65
2023/02/01 06:43:26;;;;;;;;;;;;;;;-0.09;82.41;98636.38;5004836;28;20494;-64
2023/02/01 06:45:52;;;;;;;;;;;;;;;-0.16;82.74;98631.97;5007350;28;19930;-64
2023/02/01 06:48:19;;;;;;;;;;;;;;;-0.08;82.68;98627.28;4986880;28;20363;-64
2023/02/01 06:50:45;;;;;;;;;;;;;;;-0.07;82.77;98632.44;4989768;28;20400;-65
2023/02/01 06:53:11;;;;;;;;;;;;;;;-0.01;82.50;98644.91;5004620;28;19929;-65
2023/02/01 06:55:37;;;;;;;;;;;;;;;-0.13;82.26;98617.22;5007642;28;19937;-64
2023/02/01 06:58:03;;;;;;;;;;;;;;;0.01;82.16;98633.13;5005202;28;20070;-64
2023/02/01 07:00:28;;;;;;;;;;;;;;;-0.05;81.96;98642.94;5003839;28;20391;-64
2023/02/01 07:02:55;;;;;;;;;;;;;;;-0.05;81.94;98642.94;4990650;28;19976;-65
2023/02/01 07:05:22;;;;;;;;;;;;;;;-0.11;81.82;98650.03;4990112;28;19976;-67
2023/02/01 07:07:48;;;;;;;;;;;;;;;-0.08;81.80;98646.09;5005566;28;19933;-65
2023/02/01 07:10:13;;;;;;;;;;;;;;;-0.01;81.68;98652.16;5000171;28;20503;-65
2023/02/01 07:12:39;;;;;;;;;;;;;;;0.02;81.49;98646.34;4999471;28;19936;-65
2023/02/01 07:15:05;;;;;;;;;;;;;;;-0.03;81.15;98654.25;4990160;28;20287;-64
2023/02/01 07:17:31;;;;;;;;;;;;;;;-0.05;81.39;98653.69;4970736;28;20500;-64
2023/02/01 07:19:59;;;;;;;;;;;;;;;-0.07;81.53;98661.16;4968857;28;20024;-65
2023/02/01 07:22:26;;;;;;;;;;;;;;;-0.12;81.27;98658.34;4992568;28;19953;-64
2023/02/01 07:24:52;;;;;;;;;;;;;;;-0.19;81.57;98667.34;4986416;28;19934;-65
2023/02/01 07:27:18;;;;;;;;;;;;;;;-0.22;81.76;98669.69;5004721;28;20400;-65
2023/02/01 07:29:44;;;;;;;;;;;;;;;-0.20;81.68;98663.00;5005477;28;19983;-66
2023/02/01 07:32:09;;;;;;;;;;;;;;;-0.17;81.51;98667.91;5006826;28;19929;-65
2023/02/01 07:34:35;;;;;;;;;;;;;;;-0.19;81.25;98669.22;5004935;28;19929;-65
2023/02/01 07:37:01;;;;;;;;;;;;;;;-0.23;81.58;98671.53;5003600;28;19929;-65
2023/02/01 07:39:28;;;;;;;;;;;;;;;-0.21;81.76;98666.75;5004443;28;20392;-64
2023/02/01 07:41:54;;;;;;;;;;;;;;;-0.18;81.64;98670.84;5005061;28;19936;-65
2023/02/01 07:44:23;;;;;;;;;;;;;;;-0.10;81.58;98675.88;4970642;28;19937;-65
2023/02/01 07:46:48;;;;;;;;;;;;;;;-0.03;81.11;98675.75;5004081;28;19977;-67
2023/02/01 07:49:14;;;;;;;;;;;;;;;-0.02;80.86;98670.16;5001811;28;19936;-65
2023/02/01 07:51:40;;;;;;;;;;;;;;;0.02;80.67;98664.31;4986289;28;20313;-65
2023/02/01 07:54:06;;;;;;;;;;;;;;;0.04;80.63;98663.03;5002949;28;19975;-65
2023/02/01 07:56:33;;;;;;;;;;;;;;;0.12;80.39;98661.88;5003778;28;19929;-65
2023/02/01 07:59:00;;;;;;;;;;;;;;;0.09;80.42;98665.03;4987229;28;19956;-65
2023/02/01 08:01:27;;;;;;;;;;;;;;;0.14;80.00;98673.22;4988165;28;19929;-65
2023/02/01 08:03:54;;;;;;;;;;;;;;;0.07;79.69;98667.94;5002852;28;20389;-64
2023/02/01 08:06:20;;;;;;;;;;;;;;;0.02;79.92;98659.78;5006091;28;19937;-64
2023/02/01 08:08:46;;;;;;;;;;;;;;;0.00;80.19;98656.50;4987240;28;19929;-64
2023/02/01 08:11:12;;;;;;;;;;;;;;;-0.03;79.92;98659.63;4966935;28;19972;-64
2023/02/01 08:13:40;;;;;;;;;;;;;;;-0.05;80.50;98669.81;5005480;28;20208;-64
2023/02/01 08:16:07;;;;;;;;;;;;;;;-0.05;80.42;98659.88;5005646;28;20044;-64
2023/02/01 08:18:34;;;;;;;;;;;;;;;-0.03;80.27;98654.25;5004562;28;19929;-65
2023/02/01 08:21:03;;;;;;;;;;;;;;;-0.06;80.52;98652.03;4983116;28;19929;-64
2023/02/01 08:23:30;;;;;;;;;;;;;;;-0.04;80.34;98660.69;4989938;28;20432;-65
2023/02/01 08:26:03;;;;;;;;;;;;;;;-0.03;80.42;98656.94;5008856;28;19929;-64
2023/02/01 08:28:29;;;;;;;;;;;;;;;0.00;80.16;98656.50;4972372;28;20488;-65
2023/02/01 08:30:56;;;;;;;;;;;;;;;0.08;80.22;98656.13;4972475;28;20040;-64
2023/02/01 08:33:22;;;;;;;;;;;;;;;0.32;79.78;98655.31;5008048;28;19935;-64
2023/02/01 08:35:48;;;;;;;;;;;;;;;0.53;78.73;98654.69;5007678;28;20028;-64
2023/02/01 08:38:14;;;;;;;;;;;;;;;0.54;77.91;98653.63;5010761;28;19975;-65
2023/02/01 08:40:41;;;;;;;;;;;;;;;0.54;77.78;98656.31;4990744;28;20011;-65
2023/02/01 08:43:07;;;;;;;;;;;;;;;0.52;77.54;98663.00;4989897;28;19929;-64
2023/02/01 08:45:33;;;;;;;;;;;;;;;0.44;77.59;98656.13;5007575;28;19984;-64
2023/02/01 08:48:00;;;;;;;;;;;;;;;0.30;77.37;98658.22;5006862;28;19933;-66
2023/02/01 08:50:26;;;;;;;;;;;;;;;0.16;77.42;98654.13;5008836;28;19988;-64
2023/02/01 08:52:51;;;;;;;;;;;;;;;0.14;77.99;98657.88;5008315;28;19936;-64
2023/02/01 08:55:17;;;;;;;;;;;;;;;0.21;77.80;98660.44;5010189;28;19930;-64
2023/02/01 08:57:44;;;;;;;;;;;;;;;0.30;77.93;98652.03;5003405;28;19937;-64
2023/02/01 09:00:12;;;;;;;;;;;;;;;0.38;77.67;98659.72;5008212;28;20040;-64
2023/02/01 09:02:38;;;;;;;;;;;;;;;0.35;76.66;98650.28;5009189;28;20035;-64
2023/02/01 09:05:05;;;;;;;;;;;;;;;0.24;77.21;98651.94;5007167;28;20040;-64
2023/02/01 09:07:32;;;;;;;;;;;;;;;0.27;77.30;98646.09;5003579;28;19930;-64
2023/02/01 09:10:00;;;;;;;;;;;;;;;0.34;76.86;98650.50;4972102;28;19930;-64
2023/02/01 09:12:26;;;;;;;;;;;;;;;0.35;76.82;98652.16;4992397;28;19930;-65
2023/02/01 09:14:52;;;;;;;;;;;;;;;0.30;76.99;98646.66;5008905;28;19930;-65
2023/02/01 09:17:18;;;;;;;;;;;;;;;0.27;76.96;98650.63;5004601;28;19930;-65
2023/02/01 09:19:44;;;;;;;;;;;;;;;0.36;77.08;98645.72;5003192;28;19929;-65
2023/02/01 09:22:11;;;;;;;;;;;;;;;0.37;76.78;98650.88;4992049;28;19969;-64
2023/02/01 09:24:37;;;;;;;;;;;;;;;0.39;76.94;98648.75;4998991;28;19933;-64
2023/02/01 09:27:02;;;;;;;;;;;;;;;0.42;76.80;98652.84;5007367;28;19930;-64
2023/02/01 09:29:28;;;;;;;;;;;;;;;0.46;76.67;98648.63;5009149;28;19936;-64
2023/02/01 09:31:54;;;;;;;;;;;;;;;0.53;76.48;98640.44;5007804;28;19933;-65
2023/02/01 09:34:20;;;;;;;;;;;;;;;0.58;76.38;98650.47;5009360;28;19929;-65
2023/02/01 09:36:46;;;;;;;;;;;;;;;0.56;76.07;98635.41;5001708;28;19957;-65
2023/02/01 09:39:13;;;;;;;;;;;;;;;0.58;76.05;98637.84;4990682;28;19929;-65
2023/02/01 09:41:48;;;;;;;;;;;;;;;0.52;75.98;98636.91;5001310;28;19929;-65
2023/02/01 09:44:23;;;;;;;;;;;;;;;0.41;76.21;98643.16;4989819;28;19936;-65
2023/02/01 09:46:54;;;;;;;;;;;;;;;0.38;76.57;98638.22;4989381;28;19975;-65
2023/02/01 09:49:22;;;;;;;;;;;;;;;0.44;76.60;98639.16;4986245;28;19936;-65
2023/02/01 09:51:49;;;;;;;;;;;;;;;0.53;76.63;98626.97;4990054;28;19969;-65
2023/02/01 09:54:17;;;;;;;;;;;;;;;0.42;76.47;98636.72;4987025;28;20312;-64
2023/02/01 09:56:46;;;;;;;;;;;;;;;0.26;77.18;98627.47;5003448;28;19975;-64
2023/02/01 09:59:21;;;;;;;;;;;;;;;0.20;77.76;98628.44;5001740;28;19961;-64
2023/02/01 10:01:47;;;;;;;;;;;;;;;0.23;77.86;98630.66;4988831;28;20414;-64
2023/02/01 10:04:17;;;;;;;;;;;;;;;0.28;78.02;98628.91;5006586;28;19957;-64
2023/02/01 10:06:48;;;;;;;;;;;;;;;0.39;77.94;98623.72;5008979;28;19930;-64
2023/02/01 10:09:32;;;;;;;;;;;;;;;0.58;77.44;98620.88;5009546;28;19929;-64
2023/02/01 10:12:13;;;;;;;;;;;;;;;0.63;76.92;98615.59;5008966;28;20348;-65
2023/02/01 10:14:47;;;;;;;;;;;;;;;0.58;76.39;98624.38;5004425;28;19937;-65
2023/02/01 10:17:18;;;;;;;;;;;;;;;0.70;76.47;98617.09;5000099;28;20477;-64
2023/02/01 10:19:49;;;;;;;;;;;;;;;0.67;76.00;98608.69;4989080;28;19969;-65
2023/02/01 10:22:18;;;;;;;;;;;;;;;0.58;76.41;98607.44;5007625;28;19929;-65
2023/02/01 10:24:47;;;;;;;;;;;;;;;0.48;76.51;98606.16;5008568;28;19937;-65
2023/02/01 10:27:14;;;;;;;;;;;;;;;0.41;77.04;98608.97;4990596;28;19929;-65
2023/02/01 10:29:41;;;;;;;;;;;;;;;0.36;77.38;98613.44;5004253;28;20408;-65
2023/02/01 10:32:12;;;;;;;;;;;;;;;0.33;77.67;98608.53;4999464;28;19929;-65
2023/02/01 10:34:39;;;;;;;;;;;;;;;0.31;78.05;98611.44;5005732;28;19957;-65
2023/02/01 10:37:13;;;;;;;;;;;;;;;0.33;77.60;98620.13;4990208;28;19929;-64
2023/02/01 10:39:39;;;;;;;;;;;;;;;0.30;77.10;98612.50;4981724;28;20290;-65
2023/02/01 10:42:07;;;;;;;;;;;;;;;0.23;77.63;98618.00;4973164;28;19936;-67
2023/02/01 10:44:36;;;;;;;;;;;;;;;0.22;77.70;98618.25;5007896;28;19933;-65
2023/02/01 10:47:01;;;;;;;;;;;;;;;0.11;77.36;98620.72;4989885;28;20412;-66
2023/02/01 10:49:32;;;;;;;;;;;;;;;0.04;77.99;98619.19;5006587;28;19941;-65
2023/02/01 10:52:02;;;;;;;;;;;;;;;0.06;78.21;98620.63;5004693;28;19933;-66
2023/02/01 10:54:34;;;;;;;;;;;;;;;0.14;78.27;98616.75;5000505;28;19936;-65
2023/02/01 10:57:00;;;;;;;;;;;;;;;0.21;77.90;98619.31;5004813;28;20289;-65
2023/02/01 10:59:28;;;;;;;;;;;;;;;0.25;77.49;98623.16;4989090;28;19935;-64
2023/02/01 11:01:58;;;;;;;;;;;;;;;0.20;77.15;98617.69;5006518;28;20397;-65
2023/02/01 11:04:26;;;;;;;;;;;;;;;0.18;77.64;98615.22;5007852;28;19933;-65
2023/02/01 11:06:53;;;;;;;;;;;;;;;0.23;77.55;98615.31;5004723;28;19969;-65
2023/02/01 11:09:24;;;;;;;;;;;;;;;0.33;77.33;98616.59;4984245;28;19980;-66
2023/02/01 11:11:54;;;;;;;;;;;;;;;0.39;77.25;98613.78;5002435;28;19944;-65
2023/02/01 11:14:20;;;;;;;;;;;;;;;0.44;77.05;98614.94;4984455;28;19929;-65
2023/02/01 11:16:49;;;;;;;;;;;;;;;0.41;76.73;98611.69;5002465;28;19930;-65
2023/02/01 11:19:15;;;;;;;;;;;;;;;0.42;76.56;98605.25;4987445;28;19930;-65
2023/02/01 11:21:43;;;;;;;;;;;;;;;0.35;76.45;98626.09;4987515;28;20028;-64
2023/02/01 11:24:17;;;;;;;;;;;;;;;0.26;76.63;98619.41;4985847;28;19937;-65
2023/02/01 11:26:43;;;;;;;;;;;;;;;0.30;76.72;98619.78;5004008;28;19984;-65
2023/02/01 11:29:11;;;;;;;;;;;;;;;0.40;76.74;98620.81;4986291;28;19929;-64
2023/02/01 11:31:38;;;;;;;;;;;;;;;0.47;76.20;98620.66;5000992;28;19937;-65
2023/02/01 11:34:12;;;;;;;;;;;;;;;0.40;76.30;98626.19;5006864;28;20227;-65
2023/02/01 11:36:39;;;;;;;;;;;;;;;0.34;76.22;98629.81;5001023;28;19930;-66
2023/02/01 11:39:09;;;;;;;;;;;;;;;0.28;76.06;98622.69;4986642;28;19941;-65
2023/02/01 11:41:41;;;;;;;;;;;;;;;0.23;76.11;98634.13;5003394;28;19944;-65
2023/02/01 11:44:21;;;;;;;;;;;;;;;0.21;76.43;98630.88;5003005;28;19960;-66
2023/02/01 11:46:47;;;;;;;;;;;;;;;0.13;76.11;98620.50;4987427;28;19980;-65
2023/02/01 11:49:22;;;;;;;;;;;;;;;0.07;76.56;98627.63;5004395;28;20396;-65
2023/02/01 11:51:54;;;;;;;;;;;;;;;0.18;76.55;98627.84;5002217;28;19929;-65
2023/02/01 11:54:26;;;;;;;;;;;;;;;0.28;76.30;98628.91;5005753;28;19930;-65
2023/02/01 11:57:00;;;;;;;;;;;;;;;0.31;76.22;98632.97;5001365;28;19960;-66
2023/02/01 11:59:33;;;;;;;;;;;;;;;0.39;76.11;98638.00;5006009;28;20906;-65
2023/02/01 12:02:16;;;;;;;;;;;;;;;0.42;75.57;98639.41;4988248;28;19973;-65
2023/02/01 12:05:06;;;;;;;;;;;;;;;0.45;75.14;98647.00;4987100;28;20323;-66
2023/02/01 12:07:36;;;;;;;;;;;;;;;0.32;74.70;98653.44;4986121;28;19929;-65
2023/02/01 12:10:09;;;;;;;;;;;;;;;0.22;75.08;98655.91;5010835;28;20296;-65
2023/02/01 12:12:39;;;;;;;;;;;;;;;0.11;75.54;98644.91;4975813;28;19936;-65
2023/02/01 12:15:21;;;;;;;;;;;;;;;0.17;75.85;98651.22;5010444;28;20285;-65
2023/02/01 12:18:00;;;;;;;;;;;;;;;0.25;75.67;98653.56;4993816;28;19929;-65
2023/02/01 12:20:40;;;;;;;;;;;;;;;0.27;75.03;98656.00;4989947;28;19935;-66
2023/02/01 12:23:21;;;;;;;;;;;;;;;0.31;74.85;98654.47;4986622;28;20426;-65
2023/02/01 12:25:57;;;;;;;;;;;;;;;0.20;73.63;98663.38;5006581;28;19972;-65
2023/02/01 12:28:36;;;;;;;;;;;;;;;0.06;74.06;98660.09;4988337;28;20226;-66
2023/02/01 12:31:15;;;;;;;;;;;;;;;0.02;73.88;98675.06;4988454;28;19934;-66
2023/02/01 12:33:50;;;;;;;;;;;;;;;0.04;73.48;98657.66;4973528;28;19937;-65
2023/02/01 12:36:21;;;;;;;;;;;;;;;0.07;73.33;98659.88;4991080;28;19969;-66
2023/02/01 12:38:53;;;;;;;;;;;;;;;-0.08;73.16;98649.59;4991266;28;20396;-66
2023/02/01 12:41:37;;;;;;;;;;;;;;;0.02;73.31;98664.31;4988904;28;19933;-66
2023/02/01 12:44:07;;;;;;;;;;;;;;;0.02;73.39;98664.31;5004326;28;20020;-66
2023/02/01 12:46:35;;;;;;;;;;;;;;;-0.01;73.51;98660.22;5004488;28;20431;-65
2023/02/01 12:49:03;;;;;;;;;;;;;;;0.00;73.97;98667.25;5007235;28;19936;-65
2023/02/01 12:51:33;;;;;;;;;;;;;;;0.02;73.65;98657.09;5008152;28;19960;-65
2023/02/01 12:54:02;;;;;;;;;;;;;;;0.07;73.81;98662.56;5003005;28;20372;-65
2023/02/01 12:56:31;;;;;;;;;;;;;;;0.13;73.48;98676.94;4988808;28;19929;-64
2023/02/01 12:59:00;;;;;;;;;;;;;;;0.04;73.86;98681.03;5006288;28;19933;-65
2023/02/01 13:01:29;;;;;;;;;;;;;;;0.02;73.66;98675.91;5002124;28;19976;-65
2023/02/01 13:03:59;;;;;;;;;;;;;;;0.05;73.77;98672.75;4983771;28;19929;-65
2023/02/01 13:06:29;;;;;;;;;;;;;;;0.09;73.36;98675.78;4991707;28;19929;-65
2023/02/01 13:09:00;;;;;;;;;;;;;;;0.03;73.63;98663.25;5007037;28;19929;-65
2023/02/01 13:11:28;;;;;;;;;;;;;;;0.04;73.88;98668.41;4987051;28;20200;-66
2023/02/01 13:13:58;;;;;;;;;;;;;;;0.05;73.59;98672.75;4972705;28;19973;-65
2023/02/01 13:16:28;;;;;;;;;;;;;;;0.15;73.78;98661.41;4991527;28;20316;-65
2023/02/01 13:18:59;;;;;;;;;;;;;;;0.17;73.53;98667.34;5003228;28;20344;-65
2023/02/01 13:21:27;;;;;;;;;;;;;;;0.17;73.38;98663.88;4988318;28;20313;-66
2023/02/01 13:23:53;;;;;;;;;;;;;;;0.18;73.53;98658.22;5007537;28;20344;-65